sensor_id;sensor_type;location;lat;lon;timestamp;pressure;altitude;pressure_sealevel;temperature;humidity
36692;BME280;22678;52.052;4.242;2023-01-13T00:00:57;100304.22;;;8.92;78.33
36692;BME280;22678;52.052;4.242;2023-01-13T00:03:22;100318.09;;;9.01;78.60
36692;BME280;22678;52.052;4.242;2023-01-13T00:05:48;100307.66;;;8.98;79.18
36692;BME280;22678;52.052;4.242;2023-01-13T00:08:13;100291.94;;;8.94;79.83
36692;BME280;22678;52.052;4.242;2023-01-13T00:10:38;100264.88;;;8.92;81.25
36692;BME280;22678;52.052;4.242;2023-01-13T00:13:04;100297.09;;;9.07;81.67
36692;BME280;22678;52.052;4.242;2023-01-13T00:15:30;100277.94;;;8.99;81.84
36692;BME280;22678;52.052;4.242;2023-01-13T00:17:55;100254.44;;;8.89;81.40
36692;BME280;22678;52.052;4.242;2023-01-13T00:20:21;100237.97;;;8.75;81.35
36692;BME280;22678;52.052;4.242;2023-01-13T00:22:46;100264.06;;;8.87;81.77
36692;BME280;22678;52.052;4.242;2023-01-13T00:25:11;100239.56;;;8.88;81.60
36692;BME280;22678;52.052;4.242;2023-01-13T00:27:37;100269.09;;;9.06;81.99
36692;BME280;22678;52.052;4.242;2023-01-13T00:30:03;100267.41;;;9.02;82.09
36692;BME280;22678;52.052;4.242;2023-01-13T00:32:29;100270.06;;;8.97;82.68
36692;BME280;22678;52.052;4.242;2023-01-13T00:34:54;100272.69;;;8.99;83.40
36692;BME280;22678;52.052;4.242;2023-01-13T00:37:20;100276.16;;;9.01;83.89
36692;BME280;22678;52.052;4.242;2023-01-13T00:39:46;100276.22;;;8.94;84.01
36692;BME280;22678;52.052;4.242;2023-01-13T00:42:11;100232.63;;;8.84;83.47
36692;BME280;22678;52.052;4.242;2023-01-13T00:44:55;100251.72;;;8.97;83.17
36692;BME280;22678;52.052;4.242;2023-01-13T00:47:21;100244.78;;;8.91;83.05
36692;BME280;22678;52.052;4.242;2023-01-13T00:49:47;100255.31;;;8.88;82.82
36692;BME280;22678;52.052;4.242;2023-01-13T00:52:14;100262.31;;;8.88;82.08
36692;BME280;22678;52.052;4.242;2023-01-13T00:54:39;100265.78;;;8.88;81.28
36692;BME280;22678;52.052;4.242;2023-01-13T00:57:04;100262.34;;;8.86;80.31
36692;BME280;22678;52.052;4.242;2023-01-13T00:59:29;100255.38;;;8.82;79.78
36692;BME280;22678;52.052;4.242;2023-01-13T01:01:55;100219.72;;;8.63;79.12
36692;BME280;22678;52.052;4.242;2023-01-13T01:04:20;100245.81;;;8.76;78.70
36692;BME280;22678;52.052;4.242;2023-01-13T01:06:46;100181.47;;;8.41;79.11
36692;BME280;22678;52.052;4.242;2023-01-13T01:09:15;100213.63;;;8.64;79.37
36692;BME280;22678;52.052;4.242;2023-01-13T01:11:41;100218.88;;;8.61;80.18
36692;BME280;22678;52.052;4.242;2023-01-13T01:14:09;100239.63;;;8.84;80.56
36692;BME280;22678;52.052;4.242;2023-01-13T01:16:37;100234.44;;;8.79;81.14
36692;BME280;22678;52.052;4.242;2023-01-13T01:19:02;100232.72;;;8.75;81.38
36692;BME280;22678;52.052;4.242;2023-01-13T01:21:29;100251.84;;;8.83;81.48
36692;BME280;22678;52.052;4.242;2023-01-13T01:23:58;100243.09;;;8.84;81.30
36692;BME280;22678;52.052;4.242;2023-01-13T01:26:25;100227.50;;;8.73;81.14
36692;BME280;22678;52.052;4.242;2023-01-13T01:28:51;100238.81;;;8.75;80.85
36692;BME280;22678;52.052;4.242;2023-01-13T01:31:25;100249.28;;;8.77;80.61
36692;BME280;22678;52.052;4.242;2023-01-13T01:33:52;100253.56;;;8.86;80.35
36692;BME280;22678;52.052;4.242;2023-01-13T01:36:20;100242.25;;;8.84;80.23
36692;BME280;22678;52.052;4.242;2023-01-13T01:38:46;100218.84;;;8.64;80.23
36692;BME280;22678;52.052;4.242;2023-01-13T01:41:17;100252.78;;;8.79;80.30
36692;BME280;22678;52.052;4.242;2023-01-13T01:43:48;100254.50;;;8.80;79.95
36692;BME280;22678;52.052;4.242;2023-01-13T01:46:24;100227.63;;;8.59;79.81
36692;BME280;22678;52.052;4.242;2023-01-13T01:48:50;100251.88;;;8.80;80.07
36692;BME280;22678;52.052;4.242;2023-01-13T01:51:15;100253.63;;;8.81;80.04
36692;BME280;22678;52.052;4.242;2023-01-13T01:53:41;100251.00;;;8.81;80.34
36692;BME280;22678;52.052;4.242;2023-01-13T01:56:08;100226.59;;;8.74;79.72
36692;BME280;22678;52.052;4.242;2023-01-13T01:58:38;100205.81;;;8.57;80.06
36692;BME280;22678;52.052;4.242;2023-01-13T02:01:06;100164.91;;;8.41;79.88
36692;BME280;22678;52.052;4.242;2023-01-13T02:03:35;100208.31;;;8.68;80.11
36692;BME280;22678;52.052;4.242;2023-01-13T02:06:02;100250.00;;;8.94;80.07
36692;BME280;22678;52.052;4.242;2023-01-13T02:08:27;100234.31;;;8.90;80.35
36692;BME280;22678;52.052;4.242;2023-01-13T02:10:53;100229.97;;;8.86;80.60
36692;BME280;22678;52.052;4.242;2023-01-13T02:13:19;100253.50;;;8.93;80.31
36692;BME280;22678;52.052;4.242;2023-01-13T02:16:03;100251.69;;;9.00;80.81
36692;BME280;22678;52.052;4.242;2023-01-13T02:18:52;100253.44;;;9.00;81.27
36692;BME280;22678;52.052;4.242;2023-01-13T02:24:34;100230.75;;;8.97;81.49
36692;BME280;22678;52.052;4.242;2023-01-13T02:30:16;100227.25;;;8.97;81.60
36692;BME280;22678;52.052;4.242;2023-01-13T02:33:15;100232.38;;;9.06;82.01
36692;BME280;22678;52.052;4.242;2023-01-13T02:35:49;100244.63;;;9.07;82.42
36692;BME280;22678;52.052;4.242;2023-01-13T02:38:28;100221.09;;;8.98;82.74
36692;BME280;22678;52.052;4.242;2023-01-13T02:40:59;100244.63;;;9.07;83.00
36692;BME280;22678;52.052;4.242;2023-01-13T02:43:49;100246.34;;;9.08;83.55
36692;BME280;22678;52.052;4.242;2023-01-13T02:49:06;100241.13;;;9.06;85.22
36692;BME280;22678;52.052;4.242;2023-01-13T02:51:33;100228.94;;;9.01;85.99
36692;BME280;22678;52.052;4.242;2023-01-13T02:54:12;100196.06;;;8.72;86.27
36692;BME280;22678;52.052;4.242;2023-01-13T02:56:42;100242.91;;;9.03;86.38
36692;BME280;22678;52.052;4.242;2023-01-13T02:59:09;100271.81;;;9.00;85.62
36692;BME280;22678;52.052;4.242;2023-01-13T03:01:35;100245.69;;;8.89;85.68
36692;BME280;22678;52.052;4.242;2023-01-13T03:16:13;100241.34;;;8.86;82.97
36692;BME280;22678;52.052;4.242;2023-01-13T03:24:00;100240.59;;;8.73;83.01
36692;BME280;22678;52.052;4.242;2023-01-13T03:26:35;100235.44;;;8.67;83.21
36692;BME280;22678;52.052;4.242;2023-01-13T03:29:09;100235.41;;;8.70;83.99
36692;BME280;22678;52.052;4.242;2023-01-13T03:31:45;100206.69;;;8.56;83.96
36692;BME280;22678;52.052;4.242;2023-01-13T03:34:15;100185.91;;;8.38;84.08
36692;BME280;22678;52.052;4.242;2023-01-13T03:36:46;100194.56;;;8.46;84.45
36692;BME280;22678;52.052;4.242;2023-01-13T03:39:16;100212.03;;;8.47;84.40
36692;BME280;22678;52.052;4.242;2023-01-13T03:41:49;100240.69;;;8.63;84.73
36692;BME280;22678;52.052;4.242;2023-01-13T03:44:33;100222.34;;;8.63;85.23
36692;BME280;22678;52.052;4.242;2023-01-13T03:47:22;100236.28;;;8.68;85.36
36692;BME280;22678;52.052;4.242;2023-01-13T03:50:12;100217.97;;;8.65;85.63
36692;BME280;22678;52.052;4.242;2023-01-13T03:52:43;100219.84;;;8.53;85.55
36692;BME280;22678;52.052;4.242;2023-01-13T03:55:14;100231.97;;;8.64;85.25
36692;BME280;22678;52.052;4.242;2023-01-13T03:57:48;100224.03;;;8.70;84.08
36692;BME280;22678;52.052;4.242;2023-01-13T04:00:18;100213.69;;;8.57;83.72
36692;BME280;22678;52.052;4.242;2023-01-13T04:02:52;100207.59;;;8.55;83.23
36692;BME280;22678;52.052;4.242;2023-01-13T04:05:18;100228.44;;;8.68;82.58
36692;BME280;22678;52.052;4.242;2023-01-13T04:10:17;100206.63;;;8.66;80.98
36692;BME280;22678;52.052;4.242;2023-01-13T04:13:04;100191.03;;;8.50;79.72
36692;BME280;22678;52.052;4.242;2023-01-13T04:15:44;100251.88;;;8.80;78.95
36692;BME280;22678;52.052;4.242;2023-01-13T04:18:27;100218.84;;;8.64;78.43
36692;BME280;22678;52.052;4.242;2023-01-13T04:20:56;100230.94;;;8.77;78.41
36692;BME280;22678;52.052;4.242;2023-01-13T04:23:22;100220.53;;;8.71;78.01
36692;BME280;22678;52.052;4.242;2023-01-13T04:25:48;100195.38;;;8.53;78.17
36692;BME280;22678;52.052;4.242;2023-01-13T04:28:14;100210.22;;;8.52;77.45
36692;BME280;22678;52.052;4.242;2023-01-13T04:30:40;100247.50;;;8.84;77.19
36692;BME280;22678;52.052;4.242;2023-01-13T04:33:06;100256.25;;;8.81;76.72
36692;BME280;22678;52.052;4.242;2023-01-13T04:35:33;100244.03;;;8.80;76.63
36692;BME280;22678;52.052;4.242;2023-01-13T04:38:03;100255.34;;;8.85;76.47
36692;BME280;22678;52.052;4.242;2023-01-13T04:40:29;100251.03;;;8.78;75.97
36692;BME280;22678;52.052;4.242;2023-01-13T04:42:54;100244.13;;;8.71;75.48
36692;BME280;22678;52.052;4.242;2023-01-13T04:45:20;100269.41;;;8.78;74.64
36692;BME280;22678;52.052;4.242;2023-01-13T04:47:45;100258.03;;;8.79;74.15
36692;BME280;22678;52.052;4.242;2023-01-13T04:50:12;100230.25;;;8.59;74.02
36692;BME280;22678;52.052;4.242;2023-01-13T04:52:38;100245.94;;;8.66;73.88
36692;BME280;22678;52.052;4.242;2023-01-13T04:55:03;100252.03;;;8.68;73.35
36692;BME280;22678;52.052;4.242;2023-01-13T04:57:29;100265.09;;;8.71;73.67
36692;BME280;22678;52.052;4.242;2023-01-13T04:59:54;100261.63;;;8.70;73.05
36692;BME280;22678;52.052;4.242;2023-01-13T05:02:19;100237.28;;;8.57;73.81
36692;BME280;22678;52.052;4.242;2023-01-13T05:04:46;100243.34;;;8.61;73.98
36692;BME280;22678;52.052;4.242;2023-01-13T05:07:12;100251.25;;;8.55;73.93
36692;BME280;22678;52.052;4.242;2023-01-13T05:09:37;100240.81;;;8.50;74.16
36692;BME280;22678;52.052;4.242;2023-01-13T05:12:03;100254.72;;;8.60;73.96
36692;BME280;22678;52.052;4.242;2023-01-13T05:14:47;100233.00;;;8.47;74.23
36692;BME280;22678;52.052;4.242;2023-01-13T05:17:31;100248.69;;;8.50;74.68
36692;BME280;22678;52.052;4.242;2023-01-13T05:19:56;100258.28;;;8.53;74.93
36692;BME280;22678;52.052;4.242;2023-01-13T05:22:22;100223.50;;;8.31;74.99
36692;BME280;22678;52.052;4.242;2023-01-13T05:25:08;100257.44;;;8.46;74.98
36692;BME280;22678;52.052;4.242;2023-01-13T05:27:46;100227.81;;;8.38;75.11
36692;BME280;22678;52.052;4.242;2023-01-13T05:30:11;100246.97;;;8.46;74.99
36692;BME280;22678;52.052;4.242;2023-01-13T05:32:37;100222.63;;;8.35;74.68
36692;BME280;22678;52.052;4.242;2023-01-13T05:35:03;100242.63;;;8.44;74.79
36692;BME280;22678;52.052;4.242;2023-01-13T05:37:28;100223.59;;;8.20;74.19
36692;BME280;22678;52.052;4.242;2023-01-13T05:39:54;100250.47;;;8.40;74.42
36692;BME280;22678;52.052;4.242;2023-01-13T05:42:38;100270.56;;;8.45;74.61
36692;BME280;22678;52.052;4.242;2023-01-13T05:45:22;100257.53;;;8.35;74.62
36692;BME280;22678;52.052;4.242;2023-01-13T05:47:47;100281.91;;;8.48;74.73
36692;BME280;22678;52.052;4.242;2023-01-13T05:50:13;100270.53;;;8.48;74.61
36692;BME280;22678;52.052;4.242;2023-01-13T05:52:39;100259.25;;;8.38;74.55
36692;BME280;22678;52.052;4.242;2023-01-13T05:55:04;100272.28;;;8.50;74.41
36692;BME280;22678;52.052;4.242;2023-01-13T05:57:30;100253.94;;;8.50;74.66
36692;BME280;22678;52.052;4.242;2023-01-13T05:59:55;100264.38;;;8.53;74.70
36692;BME280;22678;52.052;4.242;2023-01-13T06:02:21;100269.59;;;8.56;74.86
36692;BME280;22678;52.052;4.242;2023-01-13T06:04:46;100202.63;;;8.20;74.88
36692;BME280;22678;52.052;4.242;2023-01-13T06:07:12;100266.06;;;8.61;74.72
36692;BME280;22678;52.052;4.242;2023-01-13T06:09:37;100255.59;;;8.59;74.73
36692;BME280;22678;52.052;4.242;2023-01-13T06:12:02;100257.38;;;8.57;74.72
36692;BME280;22678;52.052;4.242;2023-01-13T06:14:28;100253.88;;;8.56;74.98
36692;BME280;22678;52.052;4.242;2023-01-13T06:17:09;100260.88;;;8.54;74.86
36692;BME280;22678;52.052;4.242;2023-01-13T06:19:35;100276.56;;;8.61;75.39
36692;BME280;22678;52.052;4.242;2023-01-13T06:22:16;100276.53;;;8.62;74.96
36692;BME280;22678;52.052;4.242;2023-01-13T06:24:43;100252.16;;;8.52;74.69
36692;BME280;22678;52.052;4.242;2023-01-13T06:27:10;100278.31;;;8.58;74.05
36692;BME280;22678;52.052;4.242;2023-01-13T06:29:36;100252.13;;;8.58;73.40
36692;BME280;22678;52.052;4.242;2023-01-13T06:32:04;100265.22;;;8.60;73.66
36692;BME280;22678;52.052;4.242;2023-01-13T06:34:31;100261.75;;;8.53;73.75
36692;BME280;22678;52.052;4.242;2023-01-13T06:36:57;100267.03;;;8.52;73.96
36692;BME280;22678;52.052;4.242;2023-01-13T06:39:25;100262.69;;;8.46;74.08
36692;BME280;22678;52.052;4.242;2023-01-13T06:41:53;100281.84;;;8.54;73.98
36692;BME280;22678;52.052;4.242;2023-01-13T06:44:37;100277.47;;;8.55;73.91
36692;BME280;22678;52.052;4.242;2023-01-13T06:47:03;100291.47;;;8.55;74.18
36692;BME280;22678;52.052;4.242;2023-01-13T06:49:28;100298.41;;;8.56;73.99
36692;BME280;22678;52.052;4.242;2023-01-13T06:51:54;100294.13;;;8.49;74.57
36692;BME280;22678;52.052;4.242;2023-01-13T06:54:19;100297.66;;;8.45;74.86
36692;BME280;22678;52.052;4.242;2023-01-13T06:56:45;100304.56;;;8.52;75.23
36692;BME280;22678;52.052;4.242;2023-01-13T06:59:10;100289.75;;;8.50;74.97
36692;BME280;22678;52.052;4.242;2023-01-13T07:01:35;100288.88;;;8.49;74.58
36692;BME280;22678;52.052;4.242;2023-01-13T07:04:01;100314.19;;;8.52;74.82
36692;BME280;22678;52.052;4.242;2023-01-13T07:06:26;100302.84;;;8.51;74.71
36692;BME280;22678;52.052;4.242;2023-01-13T07:08:53;100298.44;;;8.53;75.12
36692;BME280;22678;52.052;4.242;2023-01-13T07:11:18;100281.03;;;8.48;75.34
36692;BME280;22678;52.052;4.242;2023-01-13T07:13:43;100301.06;;;8.53;75.42
36692;BME280;22678;52.052;4.242;2023-01-13T07:16:27;100290.63;;;8.50;75.09
36692;BME280;22678;52.052;4.242;2023-01-13T07:18:53;100305.41;;;8.57;75.09
36692;BME280;22678;52.052;4.242;2023-01-13T07:21:18;100294.97;;;8.53;75.27
36692;BME280;22678;52.052;4.242;2023-01-13T07:23:45;100311.47;;;8.63;75.27
36692;BME280;22678;52.052;4.242;2023-01-13T07:26:11;100300.13;;;8.61;74.91
36692;BME280;22678;52.052;4.242;2023-01-13T07:28:37;100327.19;;;8.66;75.06
36692;BME280;22678;52.052;4.242;2023-01-13T07:31:02;100309.75;;;8.62;74.99
36692;BME280;22678;52.052;4.242;2023-01-13T07:33:28;100326.34;;;8.61;75.07
36692;BME280;22678;52.052;4.242;2023-01-13T07:35:59;100305.38;;;8.62;75.25
36692;BME280;22678;52.052;4.242;2023-01-13T07:38:25;100317.53;;;8.71;75.06
36692;BME280;22678;52.052;4.242;2023-01-13T07:40:51;100318.44;;;8.67;75.45
36692;BME280;22678;52.052;4.242;2023-01-13T07:43:16;100321.94;;;8.69;75.65
36692;BME280;22678;52.052;4.242;2023-01-13T07:45:57;100318.44;;;8.67;75.71
36692;BME280;22678;52.052;4.242;2023-01-13T07:48:24;100327.16;;;8.69;75.82
36692;BME280;22678;52.052;4.242;2023-01-13T07:50:50;100327.19;;;8.64;76.08
36692;BME280;22678;52.052;4.242;2023-01-13T07:53:15;100320.22;;;8.65;76.11
36692;BME280;22678;52.052;4.242;2023-01-13T07:55:41;100337.69;;;8.66;75.77
36692;BME280;22678;52.052;4.242;2023-01-13T07:58:08;100302.91;;;8.39;76.04
36692;BME280;22678;52.052;4.242;2023-01-13T08:00:34;100342.91;;;8.63;76.23
36692;BME280;22678;52.052;4.242;2023-01-13T08:02:59;100346.44;;;8.62;76.63
36692;BME280;22678;52.052;4.242;2023-01-13T08:05:25;100353.38;;;8.69;76.50
36692;BME280;22678;52.052;4.242;2023-01-13T08:07:50;100349.00;;;8.69;76.24
36692;BME280;22678;52.052;4.242;2023-01-13T08:10:15;100367.34;;;8.71;76.07
36692;BME280;22678;52.052;4.242;2023-01-13T08:12:41;100376.03;;;8.73;76.22
36692;BME280;22678;52.052;4.242;2023-01-13T08:15:25;100355.09;;;8.70;76.26
36692;BME280;22678;52.052;4.242;2023-01-13T08:17:50;100369.94;;;8.74;76.12
36692;BME280;22678;52.052;4.242;2023-01-13T08:20:15;100373.41;;;8.74;76.06
36692;BME280;22678;52.052;4.242;2023-01-13T08:22:41;100367.28;;;8.75;76.19
36692;BME280;22678;52.052;4.242;2023-01-13T08:25:06;100375.19;;;8.71;76.55
36692;BME280;22678;52.052;4.242;2023-01-13T08:27:32;100379.47;;;8.81;76.92
36692;BME280;22678;52.052;4.242;2023-01-13T08:29:58;100391.78;;;8.76;77.12
36692;BME280;22678;52.052;4.242;2023-01-13T08:32:23;100383.91;;;8.77;77.15
36692;BME280;22678;52.052;4.242;2023-01-13T08:34:48;100381.25;;;8.79;77.19
36692;BME280;22678;52.052;4.242;2023-01-13T08:37:14;100362.06;;;8.74;77.73
36692;BME280;22678;52.052;4.242;2023-01-13T08:39:39;100383.00;;;8.77;77.76
36692;BME280;22678;52.052;4.242;2023-01-13T08:42:04;100366.47;;;8.72;78.00
36692;BME280;22678;52.052;4.242;2023-01-13T08:44:30;100385.63;;;8.77;77.56
36692;BME280;22678;52.052;4.242;2023-01-13T08:46:56;100397.88;;;8.78;77.47
36692;BME280;22678;52.052;4.242;2023-01-13T08:49:22;100382.94;;;8.83;77.45
36692;BME280;22678;52.052;4.242;2023-01-13T08:51:49;100402.22;;;8.82;77.53
36692;BME280;22678;52.052;4.242;2023-01-13T08:54:14;100400.47;;;8.80;77.82
36692;BME280;22678;52.052;4.242;2023-01-13T08:56:41;100372.53;;;8.74;77.29
36692;BME280;22678;52.052;4.242;2023-01-13T08:59:12;100393.44;;;8.83;77.15
36692;BME280;22678;52.052;4.242;2023-01-13T09:01:38;100412.63;;;8.91;77.50
36692;BME280;22678;52.052;4.242;2023-01-13T09:04:06;100408.22;;;8.92;77.10
36692;BME280;22678;52.052;4.242;2023-01-13T09:06:31;100417.84;;;8.91;76.74
36692;BME280;22678;52.052;4.242;2023-01-13T09:08:58;100411.78;;;8.89;76.75
36692;BME280;22678;52.052;4.242;2023-01-13T09:11:34;100423.06;;;8.94;76.72
36692;BME280;22678;52.052;4.242;2023-01-13T09:14:21;100429.19;;;8.95;76.92
36692;BME280;22678;52.052;4.242;2023-01-13T09:16:47;100423.94;;;8.97;76.88
36692;BME280;22678;52.052;4.242;2023-01-13T09:19:12;100426.53;;;9.00;76.34
36692;BME280;22678;52.052;4.242;2023-01-13T09:21:38;100442.25;;;9.03;76.19
36692;BME280;22678;52.052;4.242;2023-01-13T09:24:03;100435.28;;;8.99;76.44
36692;BME280;22678;52.052;4.242;2023-01-13T09:26:29;100442.28;;;9.00;76.06
36692;BME280;22678;52.052;4.242;2023-01-13T09:28:54;100463.22;;;9.06;75.24
36692;BME280;22678;52.052;4.242;2023-01-13T09:31:19;100475.44;;;9.04;74.99
36692;BME280;22678;52.052;4.242;2023-01-13T09:33:44;100453.59;;;9.03;74.45
36692;BME280;22678;52.052;4.242;2023-01-13T09:36:28;100465.88;;;9.01;74.50
36692;BME280;22678;52.052;4.242;2023-01-13T09:38:54;100469.38;;;9.00;74.59
36692;BME280;22678;52.052;4.242;2023-01-13T09:41:25;100478.03;;;9.11;74.83
36692;BME280;22678;52.052;4.242;2023-01-13T09:44:19;100481.47;;;9.17;74.79
36692;BME280;22678;52.052;4.242;2023-01-13T09:46:51;100471.88;;;9.14;74.93
36692;BME280;22678;52.052;4.242;2023-01-13T09:49:39;100502.44;;;9.20;74.74
36692;BME280;22678;52.052;4.242;2023-01-13T09:52:20;100501.59;;;9.16;74.06
36692;BME280;22678;52.052;4.242;2023-01-13T09:55:08;100495.44;;;9.22;73.50
36692;BME280;22678;52.052;4.242;2023-01-13T09:57:36;100491.94;;;9.18;73.26
36692;BME280;22678;52.052;4.242;2023-01-13T10:00:16;100498.97;;;9.18;73.59
36692;BME280;22678;52.052;4.242;2023-01-13T10:05:42;100522.53;;;9.22;72.85
36692;BME280;22678;52.052;4.242;2023-01-13T10:08:15;100526.00;;;9.24;73.38
36692;BME280;22678;52.052;4.242;2023-01-13T10:10:46;100526.06;;;9.18;74.16
36692;BME280;22678;52.052;4.242;2023-01-13T10:18:55;100543.53;;;9.19;74.20
36692;BME280;22678;52.052;4.242;2023-01-13T10:27:34;100552.38;;;9.09;74.76
36692;BME280;22678;52.052;4.242;2023-01-13T10:33:05;100565.47;;;9.09;75.03
36692;BME280;22678;52.052;4.242;2023-01-13T10:38:24;100573.31;;;9.14;74.54
36692;BME280;22678;52.052;4.242;2023-01-13T10:40:59;100569.84;;;9.13;74.14
36692;BME280;22678;52.052;4.242;2023-01-13T10:43:25;100561.03;;;9.20;73.99
36692;BME280;22678;52.052;4.242;2023-01-13T10:45:59;100569.78;;;9.21;74.41
36692;BME280;22678;52.052;4.242;2023-01-13T10:48:43;100562.78;;;9.18;74.49
36692;BME280;22678;52.052;4.242;2023-01-13T10:51:10;100582.84;;;9.25;74.59
36692;BME280;22678;52.052;4.242;2023-01-13T10:53:45;100567.97;;;9.24;74.75
36692;BME280;22678;52.052;4.242;2023-01-13T10:56:16;100593.34;;;9.27;74.81
36692;BME280;22678;52.052;4.242;2023-01-13T10:58:42;100588.09;;;9.27;74.54
36692;BME280;22678;52.052;4.242;2023-01-13T11:01:23;100584.59;;;9.26;74.39
36692;BME280;22678;52.052;4.242;2023-01-13T11:03:50;100602.94;;;9.29;74.21
36692;BME280;22678;52.052;4.242;2023-01-13T11:06:25;100597.69;;;9.29;74.57
36692;BME280;22678;52.052;4.242;2023-01-13T11:08:53;100605.56;;;9.31;74.63
36692;BME280;22678;52.052;4.242;2023-01-13T11:13:53;100610.81;;;9.33;74.12
36692;BME280;22678;52.052;4.242;2023-01-13T11:16:39;100606.41;;;9.35;74.08
36692;BME280;22678;52.052;4.242;2023-01-13T11:19:12;100604.69;;;9.34;74.56
36692;BME280;22678;52.052;4.242;2023-01-13T11:21:46;100605.53;;;9.34;73.79
36692;BME280;22678;52.052;4.242;2023-01-13T11:24:33;100608.09;;;9.42;74.00
36692;BME280;22678;52.052;4.242;2023-01-13T11:35:18;100637.84;;;9.44;73.39
36692;BME280;22678;52.052;4.242;2023-01-13T11:37:54;100623.84;;;9.42;73.12
36692;BME280;22678;52.052;4.242;2023-01-13T11:40:33;100639.53;;;9.48;73.06
36692;BME280;22678;52.052;4.242;2023-01-13T11:43:17;100617.69;;;9.49;72.56
36692;BME280;22678;52.052;4.242;2023-01-13T11:45:56;100647.41;;;9.54;72.91
36692;BME280;22678;52.052;4.242;2023-01-13T11:48:25;100635.13;;;9.58;72.68
36692;BME280;22678;52.052;4.242;2023-01-13T11:51:07;100645.56;;;9.62;73.04
36692;BME280;22678;52.052;4.242;2023-01-13T12:07:23;100688.50;;;9.61;72.45
36692;BME280;22678;52.052;4.242;2023-01-13T12:12:55;100663.97;;;9.61;72.48
36692;BME280;22678;52.052;4.242;2023-01-13T12:20:46;100662.25;;;9.55;72.14
36692;BME280;22678;52.052;4.242;2023-01-13T12:23:28;100700.72;;;9.62;72.05
36692;BME280;22678;52.052;4.242;2023-01-13T12:26:00;100670.19;;;9.47;72.01
36692;BME280;22678;52.052;4.242;2023-01-13T12:28:40;100689.44;;;9.50;72.48
36692;BME280;22678;52.052;4.242;2023-01-13T12:31:07;100710.38;;;9.59;72.44
36692;BME280;22678;52.052;4.242;2023-01-13T12:36:14;100681.59;;;9.42;72.27
36692;BME280;22678;52.052;4.242;2023-01-13T12:38:46;100715.63;;;9.59;71.57
36692;BME280;22678;52.052;4.242;2023-01-13T12:41:29;100707.75;;;9.60;72.04
36692;BME280;22678;52.052;4.242;2023-01-13T12:43:58;100716.47;;;9.61;71.94
36692;BME280;22678;52.052;4.242;2023-01-13T12:46:50;100698.19;;;9.49;71.91
36692;BME280;22678;52.052;4.242;2023-01-13T12:49:24;100731.34;;;9.65;72.02
36692;BME280;22678;52.052;4.242;2023-01-13T12:57:31;100738.38;;;9.61;72.94
36692;BME280;22678;52.052;4.242;2023-01-13T13:07:51;100749.72;;;9.63;73.48
36692;BME280;22678;52.052;4.242;2023-01-13T13:15:33;100745.38;;;9.56;73.51
36692;BME280;22678;52.052;4.242;2023-01-13T13:21:01;100769.88;;;9.64;74.17
36692;BME280;22678;52.052;4.242;2023-01-13T13:29:04;100762.91;;;9.54;73.95
36692;BME280;22678;52.052;4.242;2023-01-13T13:39:40;100766.47;;;9.42;73.06
36692;BME280;22678;52.052;4.242;2023-01-13T13:42:26;100811.00;;;9.59;73.49
36692;BME280;22678;52.052;4.242;2023-01-13T13:45:17;100810.16;;;9.59;73.85
36692;BME280;22678;52.052;4.242;2023-01-13T13:48:24;100818.03;;;9.59;74.48
36692;BME280;22678;52.052;4.242;2023-01-13T13:50:55;100821.50;;;9.59;74.35
36692;BME280;22678;52.052;4.242;2023-01-13T13:53:30;100830.28;;;9.55;73.98
36692;BME280;22678;52.052;4.242;2023-01-13T13:55:59;100833.75;;;9.60;73.71
36692;BME280;22678;52.052;4.242;2023-01-13T13:58:30;100834.69;;;9.50;73.35
36692;BME280;22678;52.052;4.242;2023-01-13T14:00:58;100842.53;;;9.56;73.52
36692;BME280;22678;52.052;4.242;2023-01-13T14:03:30;100833.81;;;9.45;73.51
36692;BME280;22678;52.052;4.242;2023-01-13T14:06:04;100864.38;;;9.64;73.13
36692;BME280;22678;52.052;4.242;2023-01-13T14:08:34;100869.66;;;9.60;73.21
36692;BME280;22678;52.052;4.242;2023-01-13T14:11:00;100873.16;;;9.59;73.25
36692;BME280;22678;52.052;4.242;2023-01-13T14:13:28;100871.44;;;9.52;73.32
36692;BME280;22678;52.052;4.242;2023-01-13T14:15:58;100867.00;;;9.58;73.37
36692;BME280;22678;52.052;4.242;2023-01-13T14:18:27;100854.78;;;9.48;73.09
36692;BME280;22678;52.052;4.242;2023-01-13T14:23:27;100858.34;;;9.42;72.87
36692;BME280;22678;52.052;4.242;2023-01-13T14:25:53;100858.34;;;9.44;72.70
36692;BME280;22678;52.052;4.242;2023-01-13T14:28:25;100866.22;;;9.42;73.17
36692;BME280;22678;52.052;4.242;2023-01-13T14:30:52;100860.97;;;9.36;73.52
36692;BME280;22678;52.052;4.242;2023-01-13T14:33:34;100897.69;;;9.53;74.03
36692;BME280;22678;52.052;4.242;2023-01-13T14:38:28;100887.19;;;9.47;74.15
36692;BME280;22678;52.052;4.242;2023-01-13T14:40:53;100889.81;;;9.38;74.23
36692;BME280;22678;52.052;4.242;2023-01-13T14:43:22;100887.19;;;9.38;73.55
36692;BME280;22678;52.052;4.242;2023-01-13T14:45:59;100908.19;;;9.50;73.57
36692;BME280;22678;52.052;4.242;2023-01-13T14:48:32;100909.06;;;9.49;73.65
36692;BME280;22678;52.052;4.242;2023-01-13T14:51:04;100902.97;;;9.44;73.76
36692;BME280;22678;52.052;4.242;2023-01-13T14:59:33;100928.31;;;9.54;74.05
36692;BME280;22678;52.052;4.242;2023-01-13T15:02:00;100914.31;;;9.46;74.18
36692;BME280;22678;52.052;4.242;2023-01-13T15:04:30;100941.44;;;9.51;74.48
36692;BME280;22678;52.052;4.242;2023-01-13T15:06:57;100937.94;;;9.41;74.69
36692;BME280;22678;52.052;4.242;2023-01-13T15:09:38;100957.19;;;9.43;74.53
36692;BME280;22678;52.052;4.242;2023-01-13T15:12:32;100952.81;;;9.50;74.50
36692;BME280;22678;52.052;4.242;2023-01-13T15:15:01;100928.31;;;9.39;74.51
36692;BME280;22678;52.052;4.242;2023-01-13T15:17:27;100955.44;;;9.47;74.37
36692;BME280;22678;52.052;4.242;2023-01-13T15:19:52;100968.56;;;9.52;74.52
36692;BME280;22678;52.052;4.242;2023-01-13T15:22:18;100966.81;;;9.47;74.85
36692;BME280;22678;52.052;4.242;2023-01-13T15:24:43;100957.19;;;9.43;74.79
36692;BME280;22678;52.052;4.242;2023-01-13T15:27:18;100979.06;;;9.50;74.72